עמוד ראשי
METAR-TAF:

METAR-TAF

שדות תעופה :

Pekanbaru, אינדונזיה

קו רוחב: 00-28N, קו אורך: 101-27E, גובה: 31מטר

תצפית מזג אוויר נוכחית

הדו"ח נערך לפני 53דקות, בשעה 12:00 UTC
רוח 2קשר מכיוון מזרח/דרום-מזרח
טמפרטורת 31 צלסיוס
לחות 59%
לחץ 1004 hPa
ראות: 8000מטר

METAR: WIBB 251200Z 12002KT 8000 NSC 31/22 Q1004 NOSIG

זמן: 19:53 (12:53 UTC)


TAF: חסר

תצפיות ותחזיות מזג אוויר לגבי יותר מ- 4,000 שדות תעופה ברחבי העולם. דוחות METAR ו- TAF.

התחנות הזמינות מסומנות בנקודות צהובות ואדומות על גבי המפה.

העבר את העכבר לנקודה הצבעונית על מנת לראות את שם התחנה.

לאחר מכן, לחץ כדי לראות את תוכן ואת תחזיות מזג האוויר.

כדי לשנות את המפה: לחץ על הכפתורים הירוקים עם הפלוס השחור כדי להתקרב; על הכפתור הירוק עם המקף כדי להתרחק; או בחיצים הירוקים למפות סמוכות.


METAR-TAF: